Terminal Aerodrome Forecast
Issued by NWS

Current Version | Previous Version | Text Only | Print | Product List | Glossary On
Versions: 1 2 3 4 5 6 7 8 9 10 11 12 13 14
000
FTUS43 KIND 230520
TAFHUF
TAF
KHUF 230520Z 2306/2406 07011KT P6SM BKN130
     FM231100 07007KT P6SM VCSH OVC070
     FM231400 07008KT 6SM SHRA OVC050
     FM231500 08009KT 6SM SHRA OVC030
     FM231900 08010KT P6SM VCSH OVC015
     FM240300 07008KT P6SM OVC008=

USA.gov is the U.S. government's official web portal to all federal, state and local government web resources and services.